Time;durP1;ratioP1;P1;durP2;ratioP2;P2;SDS_P1;SDS_P2;PMS_P1;PMS_P2;Temp;Humidity;BMP_temperature;BMP_pressure;BME280_temperature;BME280_humidity;BME280_pressure;Samples;Min_cycle;Max_cycle;Signal;HPM_P1;HPM_P2
2023/05/14 00:01:58;;;;;;;8.30;5.50;;;9.80;99.90;;;8.54;100.00;97937.97;5024712;28;20049;-78
2023/05/14 00:04:26;;;;;;;7.15;5.45;;;9.80;99.90;;;8.58;100.00;97937.00;5026711;28;20068;-79
2023/05/14 00:06:53;;;;;;;7.18;5.40;;;9.70;99.90;;;8.65;100.00;97937.66;5023773;28;20054;-78
2023/05/14 00:09:20;;;;;;;10.15;6.20;;;9.80;99.90;;;8.65;100.00;97935.06;5008465;28;20077;-78
2023/05/14 00:11:48;;;;;;;7.63;5.85;;;9.80;99.90;;;8.66;100.00;97936.75;5025272;28;20044;-78
2023/05/14 00:14:15;;;;;;;7.47;4.97;;;9.80;99.90;;;8.35;100.00;97934.19;5025252;28;20488;-78
2023/05/14 00:16:43;;;;;;;7.03;5.30;;;9.70;99.90;;;8.20;100.00;97927.69;5026844;28;20053;-79
2023/05/14 00:19:10;;;;;;;6.13;5.10;;;9.60;99.90;;;8.15;100.00;97929.56;4999905;28;20050;-78
2023/05/14 00:21:37;;;;;;;6.05;5.32;;;9.40;99.90;;;8.16;100.00;97934.69;5027693;28;20103;-78
2023/05/14 00:24:04;;;;;;;6.22;5.22;;;9.40;99.90;;;8.32;100.00;97932.50;5013546;28;20061;-78
2023/05/14 00:26:31;;;;;;;6.88;6.18;;;9.40;99.90;;;8.33;100.00;97930.78;5011749;28;20049;-78
2023/05/14 00:28:58;;;;;;;8.07;5.72;;;9.40;99.90;;;8.44;100.00;97935.66;5024026;28;20409;-78
2023/05/14 00:31:25;;;;;;;8.70;7.60;;;9.40;99.90;;;8.46;100.00;97939.06;5025681;28;20502;-78
2023/05/14 00:33:53;;;;;;;8.90;8.00;;;9.50;99.90;;;8.55;100.00;97933.63;5026612;28;20415;-78
2023/05/14 00:36:20;;;;;;;9.05;5.35;;;9.50;99.90;;;8.13;100.00;97927.00;5025919;28;20775;-78
2023/05/14 00:38:48;;;;;;;6.97;5.07;;;9.50;99.90;;;8.10;100.00;97921.91;5028427;28;20060;-78
2023/05/14 00:41:15;;;;;;;12.75;5.15;;;9.40;99.90;;;7.98;100.00;97911.88;5042268;28;20051;-78
2023/05/14 00:43:42;;;;;;;8.65;5.25;;;9.30;99.90;;;7.97;100.00;97915.38;5011885;28;20053;-79
2023/05/14 00:46:11;;;;;;;10.20;6.25;;;9.20;99.90;;;7.92;100.00;97909.50;5023466;28;20591;-79
2023/05/14 00:48:38;;;;;;;7.40;5.88;;;9.10;99.90;;;7.95;100.00;97909.41;5009921;28;20521;-78
2023/05/14 00:51:07;;;;;;;9.13;6.28;;;9.10;99.90;;;7.97;100.00;97910.22;5022500;28;20050;-78
2023/05/14 00:53:35;;;;;;;7.93;7.00;;;9.10;99.90;;;8.16;100.00;97919.19;5027186;28;20072;-78
2023/05/14 00:56:03;;;;;;;10.98;7.68;;;9.10;99.90;;;8.29;100.00;97918.81;5022842;28;20132;-78
2023/05/14 00:58:30;;;;;;;8.57;7.55;;;9.20;99.90;;;8.31;100.00;97912.72;5022734;28;20426;-78
2023/05/14 01:00:57;;;;;;;11.77;8.90;;;9.30;99.90;;;8.23;100.00;97919.81;5024117;28;20064;-79
2023/05/14 01:03:24;;;;;;;10.25;7.10;;;9.30;99.90;;;8.29;100.00;97918.81;5010840;28;20045;-79
2023/05/14 01:06:43;;;;;;;7.43;6.10;;;9.30;99.90;;;8.02;100.00;97920.44;5026352;28;20053;-78
2023/05/14 01:09:24;;;;;;;9.40;5.70;;;9.30;99.90;;;7.85;100.00;97918.31;5025903;28;20046;-79
2023/05/14 01:12:18;;;;;;;9.00;6.75;;;9.10;99.90;;;8.03;100.00;97916.94;5027939;28;20050;-78
2023/05/14 01:15:01;;;;;;;7.35;5.53;;;9.10;99.90;;;8.04;100.00;97921.22;5026777;28;20049;-78
2023/05/14 01:17:36;;;;;;;10.77;6.90;;;9.10;99.90;;;8.03;100.00;97920.41;5025909;28;20132;-78
2023/05/14 01:20:04;;;;;;;7.93;6.68;;;9.10;99.90;;;7.96;100.00;97917.13;5023121;28;20045;-78
2023/05/14 01:22:32;;;;;;;8.07;6.75;;;9.10;99.90;;;7.91;100.00;97911.22;5021728;28;20053;-78
2023/05/14 01:24:59;;;;;;;8.45;6.10;;;9.10;99.90;;;7.90;100.00;97911.25;5027975;28;20065;-78
2023/05/14 01:27:53;;;;;;;8.95;7.22;;;9.10;99.90;;;7.98;100.00;97911.88;5024298;28;20049;-78
2023/05/14 01:30:36;;;;;;;7.53;6.60;;;9.10;99.90;;;7.96;100.00;97900.78;5025420;28;20119;-78
2023/05/14 01:33:12;;;;;;;8.32;6.40;;;9.10;99.90;;;8.02;100.00;97905.75;5026033;28;20046;-77
2023/05/14 01:35:40;;;;;;;7.57;6.72;;;9.20;99.90;;;7.88;100.00;97900.13;5025562;28;20506;-78
2023/05/14 01:38:11;;;;;;;7.80;6.35;;;9.10;99.90;;;7.82;100.00;97906.28;5008935;28;20045;-78
2023/05/14 01:40:40;;;;;;;12.07;7.10;;;9.10;99.90;;;7.74;100.00;97893.56;5026277;28;20069;-77
2023/05/14 01:43:07;;;;;;;9.98;6.20;;;9.00;99.90;;;7.67;100.00;97894.63;5006251;28;20049;-77
2023/05/14 01:45:35;;;;;;;7.38;6.47;;;8.90;99.90;;;7.74;100.00;97895.31;5025460;28;20120;-78
2023/05/14 01:48:04;;;;;;;7.38;5.95;;;8.90;99.90;;;7.63;100.00;97897.31;5026346;28;20080;-77
2023/05/14 01:50:32;;;;;;;6.32;5.68;;;8.80;99.90;;;7.61;100.00;97891.34;5027053;28;20273;-77
2023/05/14 01:53:00;;;;;;;7.13;6.28;;;8.80;99.90;;;7.77;100.00;97892.63;5028586;28;20140;-77
2023/05/14 01:55:27;;;;;;;10.23;7.03;;;8.80;99.90;;;7.78;100.00;97890.91;5025179;28;20051;-77
2023/05/14 01:57:55;;;;;;;9.25;6.90;;;8.80;99.90;;;7.82;100.00;97895.94;5027407;28;20509;-77
2023/05/14 02:00:26;;;;;;;8.70;7.07;;;8.90;99.90;;;7.97;100.00;97895.53;5026952;28;20776;-77
2023/05/14 02:02:53;;;;;;;8.57;6.93;;;8.90;99.90;;;7.91;100.00;97898.31;5027793;28;20530;-77
2023/05/14 02:05:20;;;;;;;8.05;5.82;;;9.00;99.90;;;7.74;100.00;97892.72;5024734;28;20069;-77
2023/05/14 02:07:47;;;;;;;8.45;7.53;;;8.90;99.90;;;7.75;100.00;97892.69;5022969;28;20064;-77
2023/05/14 02:10:16;;;;;;;8.30;6.70;;;8.90;99.90;;;7.56;100.00;97894.03;5020830;28;20045;-78
2023/05/14 02:12:43;;;;;;;6.57;5.35;;;8.80;99.90;;;7.46;100.00;97892.59;5024775;28;20045;-77
2023/05/14 02:15:10;;;;;;;9.00;7.25;;;8.80;99.90;;;7.64;100.00;97889.53;5022609;28;20052;-77
2023/05/14 02:17:37;;;;;;;8.05;6.28;;;8.70;99.90;;;7.66;100.00;97882.59;5026770;28;20061;-78
2023/05/14 02:20:05;;;;;;;6.63;5.93;;;8.80;99.90;;;7.63;100.00;97890.41;5011721;28;20132;-77
2023/05/14 02:22:32;;;;;;;7.60;5.75;;;8.80;99.90;;;7.65;100.00;97880.06;5029022;28;20049;-77
2023/05/14 02:25:00;;;;;;;8.38;6.53;;;8.80;99.90;;;7.62;100.00;97885.28;5025005;28;20053;-77
2023/05/14 02:27:29;;;;;;;11.60;7.25;;;8.80;99.90;;;7.43;100.00;97872.00;5025725;28;20088;-77
2023/05/14 02:29:59;;;;;;;5.75;5.15;;;8.70;99.90;;;7.40;100.00;97869.50;5022658;28;20061;-77
2023/05/14 02:32:27;;;;;;;6.38;5.72;;;8.60;99.90;;;7.52;100.00;97870.00;5024741;28;20046;-77
2023/05/14 02:34:54;;;;;;;8.25;5.30;;;8.60;99.90;;;7.56;100.00;97860.47;5025613;28;20049;-77
2023/05/14 02:37:22;;;;;;;8.23;5.93;;;8.70;99.90;;;7.55;100.00;97871.69;5024456;28;20133;-77
2023/05/14 02:39:52;;;;;;;7.22;5.78;;;8.70;99.90;;;7.48;100.00;97870.13;5025786;28;20546;-77
2023/05/14 02:42:23;;;;;;;8.93;6.00;;;8.60;99.90;;;7.41;100.00;97860.84;5023328;28;20053;-77
2023/05/14 02:44:51;;;;;;;6.97;5.93;;;8.70;99.90;;;7.42;100.00;97871.16;5024999;28;20056;-77
2023/05/14 02:47:19;;;;;;;8.27;6.15;;;8.60;99.90;;;7.43;100.00;97878.00;5022788;28;20068;-77
2023/05/14 02:49:46;;;;;;;8.30;6.13;;;8.60;99.90;;;7.45;100.00;97870.22;5023653;28;20053;-77
2023/05/14 02:52:14;;;;;;;8.60;5.53;;;8.60;99.90;;;7.35;100.00;97863.59;5022642;28;20051;-77
2023/05/14 02:54:41;;;;;;;11.15;7.30;;;8.60;99.90;;;7.31;100.00;97862.81;5008604;28;20050;-77
2023/05/14 02:57:08;;;;;;;7.20;6.00;;;8.50;99.90;;;7.16;100.00;97861.47;5025786;28;20088;-77
2023/05/14 02:59:35;;;;;;;7.35;5.85;;;8.40;99.90;;;7.16;100.00;97848.56;5024636;28;20054;-77
2023/05/14 03:02:04;;;;;;;6.13;5.30;;;8.40;99.90;;;7.05;100.00;97850.56;5006614;28;20045;-77
2023/05/14 03:04:31;;;;;;;7.15;6.00;;;8.30;99.90;;;7.13;100.00;97852.06;5024010;28;20525;-77
2023/05/14 03:06:58;;;;;;;6.22;5.50;;;8.30;99.90;;;7.06;100.00;97844.50;5008532;28;20050;-78
2023/05/14 03:09:26;;;;;;;13.05;6.20;;;8.30;99.90;;;7.13;100.00;97851.22;5024805;28;20053;-77
2023/05/14 03:11:54;;;;;;;7.97;6.90;;;8.30;99.90;;;7.24;100.00;97848.38;5021591;28;20068;-77
2023/05/14 03:14:21;;;;;;;8.93;6.72;;;8.30;99.90;;;7.28;100.00;97858.59;5022832;28;20048;-77
2023/05/14 03:16:48;;;;;;;6.88;5.90;;;8.30;99.90;;;7.22;100.00;97853.56;5028472;28;20405;-77
2023/05/14 03:19:16;;;;;;;8.70;5.80;;;8.40;99.90;;;7.17;100.00;97852.84;5025893;28;20056;-77
2023/05/14 03:21:43;;;;;;;7.80;5.35;;;8.30;99.90;;;7.17;100.00;97858.00;5023151;28;20414;-78
2023/05/14 03:24:10;;;;;;;6.78;5.95;;;8.30;99.90;;;7.15;100.00;97843.44;5009563;28;20053;-77
2023/05/14 03:26:37;;;;;;;9.68;5.60;;;8.30;99.90;;;7.11;100.00;97851.25;5021236;28;20050;-76
2023/05/14 03:29:04;;;;;;;8.25;6.15;;;8.30;99.90;;;7.05;100.00;97851.41;5024962;28;20136;-77
2023/05/14 03:31:31;;;;;;;7.85;6.55;;;8.20;99.90;;;7.15;100.00;97853.78;5022852;28;20048;-77
2023/05/14 03:33:58;;;;;;;7.82;6.60;;;8.20;99.90;;;7.08;100.00;97850.47;5025252;28;20056;-77
2023/05/14 03:36:25;;;;;;;8.82;6.60;;;8.30;99.90;;;7.12;100.00;97857.28;5024190;28;20053;-77
2023/05/14 03:38:53;;;;;;;7.00;5.88;;;8.30;99.90;;;7.21;100.00;97856.22;5026784;28;20534;-77
2023/05/14 03:41:22;;;;;;;9.40;6.03;;;8.30;99.90;;;7.09;100.00;97855.63;5024582;28;20045;-77
2023/05/14 03:43:49;;;;;;;7.00;5.28;;;8.30;99.90;;;6.96;100.00;97856.78;5019017;28;20064;-77
2023/05/14 03:46:16;;;;;;;6.47;5.57;;;8.20;99.90;;;6.88;100.00;97854.38;5026123;28;20050;-77
2023/05/14 03:48:43;;;;;;;9.60;6.38;;;8.10;99.90;;;6.89;100.00;97856.09;5004907;28;20049;-77
2023/05/14 03:51:10;;;;;;;9.18;6.13;;;8.10;99.90;;;7.01;100.00;97849.78;5023738;28;20065;-77
2023/05/14 03:53:38;;;;;;;10.82;7.68;;;8.10;99.90;;;7.06;100.00;97854.84;5023409;28;20064;-78
2023/05/14 03:56:05;;;;;;;11.73;8.27;;;8.20;99.90;;;7.19;100.00;97847.66;5028803;28;20059;-77
2023/05/14 03:58:32;;;;;;;11.35;6.45;;;8.20;99.90;;;7.10;100.00;97851.28;5029787;28;20144;-78
2023/05/14 04:00:59;;;;;;;6.72;4.38;;;8.10;99.90;;;7.04;100.00;97849.69;5029182;28;20587;-77
2023/05/14 04:03:27;;;;;;;5.05;4.55;;;8.10;99.90;;;7.07;100.00;97849.66;5029629;28;20493;-77
2023/05/14 04:05:54;;;;;;;14.80;11.93;;;8.20;99.90;;;7.00;100.00;97839.47;5028919;28;20060;-77
2023/05/14 04:08:21;;;;;;;9.55;7.88;;;8.20;99.90;;;7.13;100.00;97830.56;5029835;28;20060;-78
2023/05/14 04:10:50;;;;;;;9.75;8.23;;;8.20;99.90;;;7.07;100.00;97833.28;5023426;28;20543;-77
2023/05/14 04:13:17;;;;;;;9.50;6.93;;;8.20;99.90;;;6.98;100.00;97821.47;5026548;28;20049;-77
2023/05/14 04:15:44;;;;;;;9.07;7.75;;;8.20;99.90;;;6.91;100.00;97828.50;5027232;28;20501;-77
2023/05/14 04:18:11;;;;;;;7.03;5.47;;;8.20;99.90;;;6.98;100.00;97829.22;5029451;28;20076;-77
2023/05/14 04:20:39;;;;;;;8.70;6.07;;;8.20;99.90;;;7.05;100.00;97830.75;5027516;28;20045;-77
2023/05/14 04:23:06;;;;;;;9.50;6.45;;;8.20;99.90;;;7.10;100.00;97830.66;5010320;28;20053;-77
2023/05/14 04:25:33;;;;;;;6.32;5.72;;;8.20;99.90;;;7.12;100.00;97827.13;5028833;28;20088;-77
2023/05/14 04:28:01;;;;;;;6.45;4.88;;;8.20;99.90;;;6.94;100.00;97837.06;5025662;28;20135;-77
2023/05/14 04:30:29;;;;;;;10.20;7.10;;;8.20;99.90;;;7.08;100.00;97835.00;5008572;28;20493;-77
2023/05/14 04:32:56;;;;;;;5.78;5.10;;;8.20;99.90;;;7.10;100.00;97836.66;5022833;28;20437;-77
2023/05/14 04:35:24;;;;;;;11.38;6.10;;;8.20;99.90;;;7.16;100.00;97835.66;5028075;28;20042;-77
2023/05/14 04:37:51;;;;;;;5.32;4.55;;;8.20;99.90;;;7.00;100.00;97829.16;5011373;28;20049;-77
2023/05/14 04:40:19;;;;;;;8.52;6.70;;;8.20;99.90;;;7.03;100.00;97835.09;5029254;28;20502;-77
2023/05/14 04:42:46;;;;;;;8.65;6.03;;;8.20;99.90;;;7.16;100.00;97845.13;5025280;28;20123;-77
2023/05/14 04:45:13;;;;;;;7.93;5.55;;;8.20;99.90;;;7.24;100.00;97833.72;5026936;28;20050;-77
2023/05/14 04:47:41;;;;;;;7.60;6.18;;;8.30;99.90;;;7.22;100.00;97840.66;5024969;28;20060;-77
2023/05/14 04:50:08;;;;;;;9.68;6.32;;;8.30;99.90;;;7.28;100.00;97839.66;5027102;28;20057;-77
2023/05/14 04:52:38;;;;;;;6.43;5.63;;;8.30;99.90;;;7.29;100.00;97847.34;5028106;28;20045;-77
2023/05/14 04:55:06;;;;;;;5.72;5.07;;;8.40;99.90;;;7.28;100.00;97850.84;5028651;28;20041;-77
2023/05/14 04:57:33;;;;;;;6.35;5.47;;;8.30;99.90;;;7.41;100.00;97848.81;5011299;28;20097;-77
2023/05/14 05:00:00;;;;;;;9.13;6.68;;;8.40;99.90;;;7.48;100.00;97847.75;5011042;28;20063;-77
2023/05/14 05:02:27;;;;;;;8.02;7.07;;;8.40;99.90;;;7.82;100.00;97859.75;5039478;28;20057;-77
2023/05/14 05:04:54;;;;;;;6.53;5.75;;;8.60;99.90;;;7.94;100.00;97856.88;5004245;28;20446;-77
2023/05/14 05:07:21;;;;;;;8.95;6.60;;;8.70;99.90;;;8.05;100.00;97858.28;5027406;28;20037;-77
2023/05/14 05:09:48;;;;;;;7.60;5.78;;;8.80;99.90;;;8.10;100.00;97854.69;5021979;28;20038;-77
2023/05/14 05:12:15;;;;;;;7.72;5.47;;;9.00;99.90;;;8.10;100.00;97853.84;5027793;28;20045;-77
2023/05/14 05:14:42;;;;;;;6.75;5.07;;;9.00;99.90;;;8.18;100.00;97854.47;5026334;28;20041;-77
2023/05/14 05:17:09;;;;;;;5.25;4.75;;;9.10;99.90;;;8.20;100.00;97852.69;5028698;28;20051;-77
2023/05/14 05:19:37;;;;;;;5.95;4.60;;;9.10;99.90;;;8.23;100.00;97844.00;5024897;28;20056;-77
2023/05/14 05:22:10;;;;;;;5.75;4.72;;;9.10;99.90;;;8.24;100.00;97845.69;5012792;28;20548;-77
2023/05/14 05:24:37;;;;;;;6.55;4.90;;;9.20;99.90;;;8.18;100.00;97842.38;5026160;28;20049;-77
2023/05/14 05:27:05;;;;;;;9.82;5.20;;;9.20;99.90;;;8.16;100.00;97846.78;5007499;28;20050;-77
2023/05/14 05:29:32;;;;;;;7.72;4.45;;;9.20;99.90;;;8.22;100.00;97840.56;5041709;28;20113;-77
2023/05/14 05:31:59;;;;;;;6.45;5.05;;;9.20;99.90;;;8.42;100.00;97845.19;5019660;28;20053;-77
2023/05/14 05:34:26;;;;;;;6.70;5.38;;;9.20;99.90;;;8.54;100.00;97847.41;5022192;28;20433;-77
2023/05/14 05:36:54;;;;;;;7.25;6.18;;;9.40;99.90;;;8.54;100.00;97851.75;5026023;28;20053;-78
2023/05/14 05:39:21;;;;;;;5.93;5.07;;;9.40;99.90;;;8.79;100.00;97844.06;5025292;28;20053;-77
2023/05/14 05:41:48;;;;;;;5.75;4.88;;;9.50;99.90;;;8.97;100.00;97859.03;5024386;28;20469;-77
2023/05/14 05:44:16;;;;;;;6.60;5.53;;;9.70;99.90;;;9.30;100.00;97858.81;5004941;28;20076;-77
2023/05/14 05:46:43;;;;;;;6.32;5.22;;;9.80;99.90;;;9.36;100.00;97860.38;5011543;28;20045;-77
2023/05/14 05:49:10;;;;;;;6.95;5.82;;;9.90;99.90;;;9.52;100.00;97855.53;5010920;28;20053;-77
2023/05/14 05:51:37;;;;;;;5.80;5.20;;;10.10;99.90;;;9.83;100.00;97856.16;5024777;28;20065;-77
2023/05/14 05:54:04;;;;;;;8.30;5.38;;;10.30;99.90;;;10.12;100.00;97849.06;5024800;28;20569;-77
2023/05/14 05:56:32;;;;;;;5.50;4.30;;;10.50;99.90;;;10.29;100.00;97839.88;5026575;28;20076;-78
2023/05/14 05:58:59;;;;;;;6.30;5.47;;;10.70;99.90;;;10.33;100.00;97833.66;5025362;28;20148;-78
2023/05/14 06:01:27;;;;;;;6.10;5.30;;;10.80;99.90;;;10.46;100.00;97838.31;5023596;28;20417;-77
2023/05/14 06:03:54;;;;;;;6.97;5.50;;;11.00;99.90;;;10.55;100.00;97821.56;5027511;28;20478;-77
2023/05/14 06:06:21;;;;;;;7.35;5.20;;;11.10;99.90;;;10.71;100.00;97826.16;5022122;28;20056;-77
2023/05/14 06:08:48;;;;;;;8.25;5.85;;;11.30;99.90;;;10.61;100.00;97815.31;5027705;28;20049;-77
2023/05/14 06:11:15;;;;;;;6.25;4.75;;;11.20;99.90;;;10.83;100.00;97810.09;5025738;28;20764;-77
2023/05/14 06:13:43;;;;;;;9.10;5.25;;;11.30;99.90;;;11.01;100.00;97811.94;5025166;28;20045;-78
2023/05/14 06:16:10;;;;;;;6.13;4.30;;;11.50;99.90;;;11.21;100.00;97812.91;5006840;28;20050;-77
2023/05/14 06:18:37;;;;;;;15.80;5.22;;;11.70;99.90;;;11.26;100.00;97795.34;5004966;28;20053;-77
2023/05/14 06:21:04;;;;;;;7.05;4.90;;;11.80;99.90;;;11.51;100.00;97785.59;5024180;28;20072;-77
2023/05/14 06:23:32;;;;;;;6.78;4.93;;;12.00;99.90;;;11.63;100.00;97780.78;5025218;28;20136;-75
2023/05/14 06:25:59;;;;;;;8.15;4.93;;;12.10;99.90;;;11.70;100.00;97772.66;5009017;28;20049;-77
2023/05/14 06:28:26;;;;;;;5.68;4.50;;;12.20;99.90;;;11.77;100.00;97759.38;5015173;28;20056;-77
2023/05/14 06:30:53;;;;;;;6.55;4.82;;;12.30;99.90;;;11.93;100.00;97756.06;5014326;28;20429;-77
2023/05/14 06:33:28;;;;;;;7.97;5.28;;;12.40;99.90;;;11.82;100.00;97745.25;5023732;28;20140;-76
2023/05/14 06:36:01;;;;;;;6.53;4.90;;;12.50;99.90;;;11.52;100.00;97729.28;5022859;28;20061;-77
2023/05/14 06:38:28;;;;;;;6.22;4.78;;;12.40;99.90;;;11.39;100.00;97731.56;5004924;28;20050;-76
2023/05/14 06:40:56;;;;;;;9.35;5.10;;;12.40;99.90;;;11.56;100.00;97730.81;5028363;28;20085;-76
2023/05/14 06:43:24;;;;;;;6.13;4.93;;;12.30;99.90;;;11.68;100.00;97732.03;5008869;28;20136;-76
2023/05/14 06:45:52;;;;;;;6.97;5.28;;;12.30;99.90;;;11.49;100.00;97719.00;5041207;28;20547;-76
2023/05/14 06:48:20;;;;;;;8.10;5.88;;;12.40;99.90;;;11.44;100.00;97715.75;5008680;28;20049;-76
2023/05/14 06:50:48;;;;;;;6.78;5.57;;;12.30;99.90;;;11.34;100.00;97717.09;5027603;28;20167;-77
2023/05/14 06:53:16;;;;;;;5.95;5.30;;;12.30;99.90;;;11.45;100.00;97714.88;5006643;28;20052;-76
2023/05/14 06:55:43;;;;;;;6.13;5.15;;;12.30;99.90;;;11.54;100.00;97724.84;5023507;28;20061;-76
2023/05/14 06:58:11;;;;;;;8.57;5.95;;;12.30;99.90;;;11.64;100.00;97718.31;5025178;28;20048;-76
2023/05/14 07:00:39;;;;;;;7.75;5.70;;;12.30;99.90;;;11.70;100.00;97718.06;5024072;28;20391;-76
2023/05/14 07:03:06;;;;;;;7.82;5.80;;;12.40;99.90;;;11.88;100.00;97707.75;5023079;28;20581;-75
2023/05/14 07:05:33;;;;;;;6.60;5.03;;;12.60;99.90;;;12.04;100.00;97707.88;5010372;28;20045;-76
2023/05/14 07:08:01;;;;;;;6.05;5.45;;;12.80;99.90;;;12.35;100.00;97699.50;5026694;28;20156;-76
2023/05/14 07:10:27;;;;;;;9.25;5.88;;;12.90;99.90;;;12.48;100.00;97697.16;5020327;28;20052;-76
2023/05/14 07:12:55;;;;;;;8.18;5.00;;;13.10;99.90;;;12.61;100.00;97679.16;5025166;28;20056;-75
2023/05/14 07:15:21;;;;;;;6.20;4.50;;;13.20;99.90;;;12.83;100.00;97685.00;5025477;28;20444;-76
2023/05/14 07:17:49;;;;;;;7.10;5.47;;;13.40;99.90;;;12.94;100.00;97672.28;5022873;28;20132;-75
2023/05/14 07:20:16;;;;;;;7.57;4.82;;;13.50;99.90;;;12.95;100.00;97673.09;5027634;28;20249;-76
2023/05/14 07:22:43;;;;;;;8.35;5.50;;;13.60;99.90;;;13.13;100.00;97666.13;5024156;28;20081;-76
2023/05/14 07:25:11;;;;;;;6.47;4.90;;;13.70;99.90;;;13.32;100.00;97666.03;5025145;28;20128;-77
2023/05/14 07:27:38;;;;;;;6.85;4.68;;;13.80;99.90;;;13.19;100.00;97661.44;5026806;28;20712;-76
2023/05/14 07:30:07;;;;;;;7.68;5.28;;;13.90;99.90;;;13.24;100.00;97666.41;5027364;28;21029;-76
2023/05/14 07:32:34;;;;;;;7.28;5.03;;;14.00;99.90;;;13.34;100.00;97662.44;5013494;28;20472;-75
2023/05/14 07:35:05;;;;;;;7.38;4.78;;;14.10;99.90;;;13.51;100.00;97664.16;5027099;28;20068;-76
2023/05/14 07:37:32;;;;;;;7.50;4.80;;;14.20;99.90;;;13.94;100.00;97653.19;5029430;28;20057;-75
2023/05/14 07:39:59;;;;;;;6.22;4.35;;;14.40;99.90;;;14.11;100.00;97649.63;5012482;28;20060;-77
2023/05/14 07:42:26;;;;;;;5.70;4.10;;;14.60;99.90;;;13.94;100.00;97643.56;5045251;28;20056;-76
2023/05/14 07:45:04;;;;;;;7.78;5.00;;;14.70;99.90;;;13.80;100.00;97646.94;5029190;28;20111;-75
2023/05/14 07:47:32;;;;;;;9.88;5.03;;;14.70;99.90;;;13.73;100.00;97644.72;5029192;28;20056;-76
2023/05/14 07:50:00;;;;;;;6.10;4.35;;;14.50;99.90;;;13.97;100.00;97640.78;5027255;28;20049;-76
2023/05/14 07:52:28;;;;;;;6.22;5.03;;;14.60;99.90;;;14.00;100.00;97647.59;5028007;28;20049;-76
2023/05/14 07:54:55;;;;;;;7.70;5.03;;;14.70;99.90;;;14.10;100.00;97642.72;5030010;28;20056;-76
2023/05/14 07:57:22;;;;;;;8.45;5.38;;;14.80;99.90;;;14.21;100.00;97640.38;5026446;28;20469;-76
2023/05/14 07:59:49;;;;;;;7.80;4.90;;;14.90;99.90;;;14.51;100.00;97636.94;5025043;28;20057;-76
2023/05/14 08:02:18;;;;;;;7.43;5.25;;;15.10;99.90;;;14.56;100.00;97629.69;5026815;28;20071;-75
2023/05/14 08:04:46;;;;;;;5.78;4.70;;;15.20;99.90;;;14.52;100.00;97625.53;5028711;28;20579;-75
2023/05/14 08:07:13;;;;;;;5.65;4.10;;;15.30;99.90;;;14.55;100.00;97628.00;5026192;28;20050;-76
2023/05/14 08:09:40;;;;;;;6.95;4.70;;;15.10;99.90;;;14.58;100.00;97630.47;5029723;28;20530;-76
2023/05/14 08:12:07;;;;;;;5.75;4.75;;;15.20;99.90;;;14.41;100.00;97627.03;5026195;28;20066;-76
2023/05/14 08:14:35;;;;;;;6.07;4.38;;;15.20;99.90;;;14.84;100.00;97629.75;5021205;28;20209;-76
2023/05/14 08:17:02;;;;;;;7.32;4.90;;;15.40;99.90;;;14.33;100.00;97616.16;5026777;28;20481;-77
2023/05/14 08:19:29;;;;;;;9.07;4.95;;;15.30;99.90;;;14.53;100.00;97612.41;5029697;28;20123;-76
2023/05/14 08:21:56;;;;;;;6.32;4.72;;;15.30;99.90;;;14.50;100.00;97625.63;5025919;28;20056;-76
2023/05/14 08:24:23;;;;;;;7.97;4.53;;;15.30;99.90;;;15.30;100.00;97620.09;5024604;28;20057;-77
2023/05/14 08:26:51;;;;;;;6.63;4.30;;;15.50;99.90;;;15.89;100.00;97613.78;5008967;28;20069;-76
2023/05/14 08:29:18;;;;;;;6.55;3.83;;;15.80;99.90;;;15.62;100.00;97616.34;5017557;28;20053;-76
2023/05/14 08:31:45;;;;;;;4.57;3.55;;;16.00;99.90;;;15.91;100.00;97618.09;5026427;28;20502;-77
2023/05/14 08:34:13;;;;;;;5.05;3.80;;;16.10;99.90;;;16.12;100.00;97613.25;5024872;28;20502;-76
2023/05/14 08:36:40;;;;;;;4.25;3.30;;;16.10;99.90;;;16.50;100.00;97603.72;5022695;28;20132;-76
2023/05/14 08:39:08;;;;;;;4.70;3.47;;;16.40;99.90;;;16.76;100.00;97609.00;5026610;28;20073;-76
2023/05/14 08:41:38;;;;;;;10.07;3.75;;;16.60;99.90;;;16.61;100.00;97603.03;5006319;28;20117;-76
2023/05/14 08:44:14;;;;;;;4.43;2.95;;;17.00;99.90;;;16.62;100.00;97609.09;5024100;28;20460;-76
2023/05/14 08:46:41;;;;;;;4.30;3.28;;;17.30;99.90;;;16.29;100.00;97599.91;5026337;28;20137;-75
2023/05/14 08:49:31;;;;;;;3.42;2.88;;;17.30;99.90;;;15.93;100.00;97603.13;5011135;28;20057;-77
2023/05/14 08:51:59;;;;;;;4.63;3.00;;;17.20;99.90;;;17.43;100.00;97598.34;5008469;28;20091;-76
2023/05/14 08:54:27;;;;;;;4.85;3.03;;;18.10;99.90;;;18.38;100.00;97590.66;5025907;28;20045;-76
2023/05/14 08:56:54;;;;;;;3.22;2.45;;;19.10;99.90;;;18.21;100.00;97584.03;5040477;28;20052;-76
2023/05/14 08:59:21;;;;;;;4.20;2.70;;;20.00;99.90;;;18.64;100.00;97586.09;5022340;28;20084;-76
2023/05/14 09:01:53;;;;;;;3.58;2.53;;;20.40;99.90;;;18.41;100.00;97574.69;5022733;28;20058;-77
2023/05/14 09:04:23;;;;;;;4.47;2.40;;;20.70;99.90;;;18.16;100.00;97568.63;5007135;28;20061;-77
2023/05/14 09:06:53;;;;;;;2.15;1.73;;;20.90;99.90;;;19.09;100.00;97580.97;5020066;28;20068;-76
2023/05/14 09:09:21;;;;;;;3.90;2.28;;;21.10;99.90;;;18.23;100.00;97571.63;5024075;28;20445;-77
2023/05/14 09:11:51;;;;;;;3.15;2.00;;;20.70;99.90;;;18.28;100.00;97571.28;5025176;28;20053;-78
2023/05/14 09:14:18;;;;;;;3.60;1.88;;;20.00;99.90;;;18.40;100.00;97573.00;5023270;28;20041;-76
2023/05/14 09:16:48;;;;;;;3.30;2.05;;;20.00;99.90;;;18.77;100.00;97570.25;5036159;28;21612;-77
2023/05/14 09:19:17;;;;;;;3.60;2.22;;;20.60;99.90;;;18.17;100.00;97574.69;5023052;28;20046;-77
2023/05/14 09:21:47;;;;;;;3.20;2.08;;;20.30;99.90;;;18.88;100.00;97565.00;5024816;28;20053;-77
2023/05/14 09:24:24;;;;;;;3.13;2.28;;;20.20;99.90;;;17.75;100.00;97566.34;5025454;28;20053;-76
2023/05/14 09:26:56;;;;;;;3.10;2.10;;;19.40;99.90;;;17.59;100.00;97566.59;5023480;28;20088;-77
2023/05/14 09:29:25;;;;;;;3.03;1.90;;;19.10;99.90;;;18.68;100.00;97560.41;5025578;28;20132;-77
2023/05/14 09:31:54;;;;;;;2.95;1.88;;;19.50;99.90;;;20.36;100.00;97556.78;5027924;28;20839;-77
2023/05/14 09:34:29;;;;;;;2.67;1.77;;;20.60;99.90;;;19.51;100.00;97557.50;5022539;28;20052;-76
2023/05/14 09:37:03;;;;;;;2.33;1.50;;;21.50;99.90;;;20.00;100.00;97550.97;5025447;28;20049;-77
2023/05/14 09:39:31;;;;;;;4.93;1.40;;;21.70;99.90;;;20.10;100.00;97561.59;5016998;28;20049;-77
2023/05/14 09:41:58;;;;;;;3.20;1.42;;;22.10;99.90;;;20.59;100.00;97548.78;5024091;28;20057;-77
2023/05/14 09:44:26;;;;;;;2.63;1.58;;;22.00;99.90;;;19.47;100.00;97565.75;5023933;28;20190;-77
2023/05/14 09:46:54;;;;;;;2.90;1.70;;;21.20;99.90;;;18.53;100.00;97567.66;5026175;28;20045;-77
2023/05/14 09:49:21;;;;;;;3.83;2.10;;;20.20;99.90;;;17.76;100.00;97570.63;5025243;28;20045;-76
2023/05/14 09:51:49;;;;;;;3.55;1.70;;;19.60;99.90;;;17.14;100.00;97572.34;5005271;28;20507;-77
2023/05/14 09:54:16;;;;;;;4.47;1.92;;;18.80;99.90;;;16.80;100.00;97570.38;5025008;28;20059;-76
2023/05/14 09:56:44;;;;;;;6.38;2.33;;;18.20;99.90;;;17.00;100.00;97569.84;5004089;28;20152;-77
2023/05/14 09:59:14;;;;;;;2.72;1.80;;;18.20;99.90;;;19.02;100.00;97562.19;5004670;28;21662;-77
2023/05/14 10:01:43;;;;;;;4.30;1.75;;;18.90;99.90;;;19.65;100.00;97557.22;5006879;28;20640;-78
2023/05/14 10:04:11;;;;;;;2.72;1.73;;;19.60;99.90;;;18.13;100.00;97560.09;5020781;28;20127;-77
2023/05/14 10:06:41;;;;;;;5.25;1.55;;;19.40;99.90;;;17.52;100.00;97568.81;5039510;28;20140;-78
2023/05/14 10:09:18;;;;;;;4.15;1.67;;;18.70;99.90;;;17.21;100.00;97569.31;5025707;28;20060;-77
2023/05/14 10:11:51;;;;;;;3.55;1.80;;;18.50;99.90;;;17.87;100.00;97554.16;5040849;28;20052;-77
2023/05/14 10:14:32;;;;;;;2.25;1.45;;;18.90;99.90;;;19.15;100.00;97558.59;5006656;28;20176;-77
2023/05/14 10:17:02;;;;;;;2.63;1.60;;;19.50;99.90;;;20.95;100.00;97550.13;5020532;28;20088;-77
2023/05/14 10:19:36;;;;;;;2.33;1.50;;;20.40;99.90;;;20.59;100.00;97547.00;5021237;28;20073;-78
2023/05/14 10:22:06;;;;;;;2.25;1.30;;;21.10;99.90;;;19.22;100.00;97557.16;5039732;28;20454;-78
2023/05/14 10:24:34;;;;;;;2.65;1.60;;;20.70;99.90;;;18.21;100.00;97555.13;5022760;28;20050;-78
2023/05/14 10:27:02;;;;;;;3.38;1.70;;;19.80;99.90;;;18.21;100.00;97559.56;5006192;28;20518;-77